sensor_id;sensor_type;location;lat;lon;timestamp;P1;durP1;ratioP1;P2;durP2;ratioP2
73776;SDS011;62088;50.240;2.696;2022-10-18T00:00:05;30.50;;;21.08;;
73776;SDS011;62088;50.240;2.696;2022-10-18T00:02:36;24.95;;;19.80;;
73776;SDS011;62088;50.240;2.696;2022-10-18T00:05:03;23.65;;;19.58;;
73776;SDS011;62088;50.240;2.696;2022-10-18T00:07:30;26.38;;;18.70;;
73776;SDS011;62088;50.240;2.696;2022-10-18T00:09:58;24.48;;;15.98;;
73776;SDS011;62088;50.240;2.696;2022-10-18T00:12:25;23.55;;;15.93;;
73776;SDS011;62088;50.240;2.696;2022-10-18T00:14:52;23.05;;;17.75;;
73776;SDS011;62088;50.240;2.696;2022-10-18T00:17:19;25.98;;;18.00;;
73776;SDS011;62088;50.240;2.696;2022-10-18T00:19:46;24.58;;;16.73;;
73776;SDS011;62088;50.240;2.696;2022-10-18T00:22:14;28.58;;;19.48;;
73776;SDS011;62088;50.240;2.696;2022-10-18T00:24:41;23.88;;;17.65;;
73776;SDS011;62088;50.240;2.696;2022-10-18T00:27:08;24.58;;;17.27;;
73776;SDS011;62088;50.240;2.696;2022-10-18T00:29:35;20.45;;;15.68;;
73776;SDS011;62088;50.240;2.696;2022-10-18T00:32:02;17.30;;;13.80;;
73776;SDS011;62088;50.240;2.696;2022-10-18T00:34:29;20.95;;;16.48;;
73776;SDS011;62088;50.240;2.696;2022-10-18T00:36:56;18.90;;;15.80;;
73776;SDS011;62088;50.240;2.696;2022-10-18T00:39:23;18.45;;;14.75;;
73776;SDS011;62088;50.240;2.696;2022-10-18T00:41:50;16.88;;;12.57;;
73776;SDS011;62088;50.240;2.696;2022-10-18T00:46:51;19.27;;;13.63;;
73776;SDS011;62088;50.240;2.696;2022-10-18T00:49:24;15.00;;;12.25;;
73776;SDS011;62088;50.240;2.696;2022-10-18T00:51:57;20.10;;;12.57;;
73776;SDS011;62088;50.240;2.696;2022-10-18T00:54:39;15.32;;;11.90;;
73776;SDS011;62088;50.240;2.696;2022-10-18T00:57:08;16.27;;;13.70;;
73776;SDS011;62088;50.240;2.696;2022-10-18T00:59:36;20.23;;;13.40;;
73776;SDS011;62088;50.240;2.696;2022-10-18T01:02:04;18.23;;;13.05;;
73776;SDS011;62088;50.240;2.696;2022-10-18T01:04:33;14.48;;;12.27;;
73776;SDS011;62088;50.240;2.696;2022-10-18T01:09:40;25.48;;;13.90;;
73776;SDS011;62088;50.240;2.696;2022-10-18T01:15:20;19.15;;;14.23;;
73776;SDS011;62088;50.240;2.696;2022-10-18T01:23:35;19.23;;;14.82;;
73776;SDS011;62088;50.240;2.696;2022-10-18T01:31:46;20.92;;;15.27;;
73776;SDS011;62088;50.240;2.696;2022-10-18T01:34:26;20.65;;;14.65;;
73776;SDS011;62088;50.240;2.696;2022-10-18T01:36:59;22.02;;;15.77;;
73776;SDS011;62088;50.240;2.696;2022-10-18T01:39:30;22.42;;;17.67;;
73776;SDS011;62088;50.240;2.696;2022-10-18T01:42:02;22.83;;;16.13;;
73776;SDS011;62088;50.240;2.696;2022-10-18T01:44:33;22.75;;;18.20;;
73776;SDS011;62088;50.240;2.696;2022-10-18T01:47:01;26.67;;;18.05;;
73776;SDS011;62088;50.240;2.696;2022-10-18T01:49:32;25.83;;;16.65;;
73776;SDS011;62088;50.240;2.696;2022-10-18T01:51:59;21.65;;;16.73;;
73776;SDS011;62088;50.240;2.696;2022-10-18T01:54:28;25.35;;;16.25;;
73776;SDS011;62088;50.240;2.696;2022-10-18T02:10:08;23.35;;;15.68;;
73776;SDS011;62088;50.240;2.696;2022-10-18T02:12:45;26.08;;;16.67;;
73776;SDS011;62088;50.240;2.696;2022-10-18T02:15:15;23.08;;;17.02;;
73776;SDS011;62088;50.240;2.696;2022-10-18T02:17:46;28.58;;;18.33;;
73776;SDS011;62088;50.240;2.696;2022-10-18T02:20:13;32.75;;;18.45;;
73776;SDS011;62088;50.240;2.696;2022-10-18T02:22:44;27.30;;;18.67;;
73776;SDS011;62088;50.240;2.696;2022-10-18T02:25:19;22.92;;;17.48;;
73776;SDS011;62088;50.240;2.696;2022-10-18T02:27:52;22.50;;;17.10;;
73776;SDS011;62088;50.240;2.696;2022-10-18T02:30:22;26.05;;;17.85;;
73776;SDS011;62088;50.240;2.696;2022-10-18T02:32:56;31.92;;;19.38;;
73776;SDS011;62088;50.240;2.696;2022-10-18T02:35:46;28.25;;;18.00;;
73776;SDS011;62088;50.240;2.696;2022-10-18T02:38:19;25.70;;;17.67;;
73776;SDS011;62088;50.240;2.696;2022-10-18T02:40:50;25.50;;;18.83;;
73776;SDS011;62088;50.240;2.696;2022-10-18T02:43:17;24.05;;;16.98;;
73776;SDS011;62088;50.240;2.696;2022-10-18T02:45:44;24.27;;;15.70;;
73776;SDS011;62088;50.240;2.696;2022-10-18T02:48:11;20.52;;;15.88;;
73776;SDS011;62088;50.240;2.696;2022-10-18T02:50:38;28.75;;;18.40;;
73776;SDS011;62088;50.240;2.696;2022-10-18T02:53:05;30.92;;;19.45;;
73776;SDS011;62088;50.240;2.696;2022-10-18T02:55:32;33.47;;;18.13;;
73776;SDS011;62088;50.240;2.696;2022-10-18T02:57:59;30.80;;;19.38;;
73776;SDS011;62088;50.240;2.696;2022-10-18T03:00:26;28.13;;;17.45;;
73776;SDS011;62088;50.240;2.696;2022-10-18T03:02:53;29.38;;;18.05;;
73776;SDS011;62088;50.240;2.696;2022-10-18T03:05:20;26.60;;;16.63;;
73776;SDS011;62088;50.240;2.696;2022-10-18T03:07:47;27.02;;;17.60;;
73776;SDS011;62088;50.240;2.696;2022-10-18T03:10:14;23.02;;;16.98;;
73776;SDS011;62088;50.240;2.696;2022-10-18T03:12:41;22.67;;;14.88;;
73776;SDS011;62088;50.240;2.696;2022-10-18T03:15:08;25.00;;;15.77;;
73776;SDS011;62088;50.240;2.696;2022-10-18T03:17:35;78.53;;;17.48;;
73776;SDS011;62088;50.240;2.696;2022-10-18T03:20:02;42.70;;;16.55;;
73776;SDS011;62088;50.240;2.696;2022-10-18T03:22:29;26.52;;;16.25;;
73776;SDS011;62088;50.240;2.696;2022-10-18T03:24:56;28.00;;;17.63;;
73776;SDS011;62088;50.240;2.696;2022-10-18T03:27:23;22.80;;;15.00;;
73776;SDS011;62088;50.240;2.696;2022-10-18T03:29:50;25.73;;;18.27;;
73776;SDS011;62088;50.240;2.696;2022-10-18T03:32:17;23.27;;;17.75;;
73776;SDS011;62088;50.240;2.696;2022-10-18T03:34:44;30.40;;;17.83;;
73776;SDS011;62088;50.240;2.696;2022-10-18T03:37:11;24.45;;;16.85;;
73776;SDS011;62088;50.240;2.696;2022-10-18T03:39:38;23.23;;;16.48;;
73776;SDS011;62088;50.240;2.696;2022-10-18T03:42:05;25.15;;;16.67;;
73776;SDS011;62088;50.240;2.696;2022-10-18T03:44:32;26.55;;;16.35;;
73776;SDS011;62088;50.240;2.696;2022-10-18T03:46:59;25.20;;;17.95;;
73776;SDS011;62088;50.240;2.696;2022-10-18T03:49:26;31.63;;;17.60;;
73776;SDS011;62088;50.240;2.696;2022-10-18T03:51:53;23.60;;;16.08;;
73776;SDS011;62088;50.240;2.696;2022-10-18T03:54:20;31.88;;;18.73;;
73776;SDS011;62088;50.240;2.696;2022-10-18T03:56:47;27.13;;;18.95;;
73776;SDS011;62088;50.240;2.696;2022-10-18T03:59:14;26.90;;;18.60;;
73776;SDS011;62088;50.240;2.696;2022-10-18T04:01:42;26.55;;;17.75;;
73776;SDS011;62088;50.240;2.696;2022-10-18T04:04:09;27.60;;;19.15;;
73776;SDS011;62088;50.240;2.696;2022-10-18T04:06:36;21.75;;;17.05;;
73776;SDS011;62088;50.240;2.696;2022-10-18T04:09:03;26.85;;;18.95;;
73776;SDS011;62088;50.240;2.696;2022-10-18T04:11:35;24.58;;;19.05;;
73776;SDS011;62088;50.240;2.696;2022-10-18T04:14:02;23.67;;;18.05;;
73776;SDS011;62088;50.240;2.696;2022-10-18T04:16:29;22.92;;;16.23;;
73776;SDS011;62088;50.240;2.696;2022-10-18T04:18:56;23.75;;;17.20;;
73776;SDS011;62088;50.240;2.696;2022-10-18T04:21:23;22.33;;;17.08;;
73776;SDS011;62088;50.240;2.696;2022-10-18T04:23:50;19.17;;;15.38;;
73776;SDS011;62088;50.240;2.696;2022-10-18T04:26:17;18.98;;;14.98;;
73776;SDS011;62088;50.240;2.696;2022-10-18T04:28:44;20.20;;;15.85;;
73776;SDS011;62088;50.240;2.696;2022-10-18T04:31:11;20.77;;;15.45;;
73776;SDS011;62088;50.240;2.696;2022-10-18T04:33:38;22.15;;;14.65;;
73776;SDS011;62088;50.240;2.696;2022-10-18T04:36:05;23.63;;;17.77;;
73776;SDS011;62088;50.240;2.696;2022-10-18T04:38:32;30.65;;;19.25;;
73776;SDS011;62088;50.240;2.696;2022-10-18T04:41:00;26.90;;;19.08;;
73776;SDS011;62088;50.240;2.696;2022-10-18T04:43:27;28.02;;;18.55;;
73776;SDS011;62088;50.240;2.696;2022-10-18T04:45:54;30.00;;;19.33;;
73776;SDS011;62088;50.240;2.696;2022-10-18T04:48:21;30.30;;;20.60;;
73776;SDS011;62088;50.240;2.696;2022-10-18T04:50:48;30.13;;;20.63;;
73776;SDS011;62088;50.240;2.696;2022-10-18T04:53:16;33.53;;;23.15;;
73776;SDS011;62088;50.240;2.696;2022-10-18T04:55:47;33.47;;;23.35;;
73776;SDS011;62088;50.240;2.696;2022-10-18T04:58:15;33.75;;;23.38;;
73776;SDS011;62088;50.240;2.696;2022-10-18T05:00:45;33.63;;;24.15;;
73776;SDS011;62088;50.240;2.696;2022-10-18T05:03:13;32.67;;;23.42;;
73776;SDS011;62088;50.240;2.696;2022-10-18T05:05:40;34.03;;;22.95;;
73776;SDS011;62088;50.240;2.696;2022-10-18T05:08:27;35.38;;;22.45;;
73776;SDS011;62088;50.240;2.696;2022-10-18T05:10:55;32.95;;;21.60;;
73776;SDS011;62088;50.240;2.696;2022-10-18T05:13:22;30.77;;;22.20;;
73776;SDS011;62088;50.240;2.696;2022-10-18T05:15:49;33.47;;;22.52;;
73776;SDS011;62088;50.240;2.696;2022-10-18T05:18:16;25.48;;;19.65;;
73776;SDS011;62088;50.240;2.696;2022-10-18T05:20:43;30.08;;;21.33;;
73776;SDS011;62088;50.240;2.696;2022-10-18T05:23:10;29.83;;;21.38;;
73776;SDS011;62088;50.240;2.696;2022-10-18T05:25:37;31.10;;;22.20;;
73776;SDS011;62088;50.240;2.696;2022-10-18T05:28:05;29.30;;;22.90;;
73776;SDS011;62088;50.240;2.696;2022-10-18T05:30:41;30.02;;;23.10;;
73776;SDS011;62088;50.240;2.696;2022-10-18T05:33:08;26.98;;;21.30;;
73776;SDS011;62088;50.240;2.696;2022-10-18T05:35:35;26.20;;;19.15;;
73776;SDS011;62088;50.240;2.696;2022-10-18T05:38:05;29.67;;;18.45;;
73776;SDS011;62088;50.240;2.696;2022-10-18T05:40:32;26.73;;;19.30;;
73776;SDS011;62088;50.240;2.696;2022-10-18T05:42:59;22.67;;;18.15;;
73776;SDS011;62088;50.240;2.696;2022-10-18T05:45:26;27.42;;;21.35;;
73776;SDS011;62088;50.240;2.696;2022-10-18T05:47:53;31.58;;;23.02;;
73776;SDS011;62088;50.240;2.696;2022-10-18T05:50:20;32.33;;;24.80;;
73776;SDS011;62088;50.240;2.696;2022-10-18T05:52:47;40.45;;;25.85;;
73776;SDS011;62088;50.240;2.696;2022-10-18T05:55:14;34.75;;;24.83;;
73776;SDS011;62088;50.240;2.696;2022-10-18T05:57:41;28.35;;;22.23;;
73776;SDS011;62088;50.240;2.696;2022-10-18T06:00:08;31.13;;;23.15;;
73776;SDS011;62088;50.240;2.696;2022-10-18T06:02:40;29.38;;;21.98;;
73776;SDS011;62088;50.240;2.696;2022-10-18T06:05:07;30.98;;;24.08;;
73776;SDS011;62088;50.240;2.696;2022-10-18T06:07:34;38.30;;;24.52;;
73776;SDS011;62088;50.240;2.696;2022-10-18T06:10:01;30.58;;;21.55;;
73776;SDS011;62088;50.240;2.696;2022-10-18T06:12:28;26.55;;;21.27;;
73776;SDS011;62088;50.240;2.696;2022-10-18T06:14:55;35.40;;;24.08;;
73776;SDS011;62088;50.240;2.696;2022-10-18T06:17:22;30.63;;;22.17;;
73776;SDS011;62088;50.240;2.696;2022-10-18T06:19:53;30.48;;;21.17;;
73776;SDS011;62088;50.240;2.696;2022-10-18T06:22:19;25.35;;;19.65;;
73776;SDS011;62088;50.240;2.696;2022-10-18T06:24:46;24.75;;;18.85;;
73776;SDS011;62088;50.240;2.696;2022-10-18T06:27:13;28.08;;;20.65;;
73776;SDS011;62088;50.240;2.696;2022-10-18T06:29:40;28.25;;;22.08;;
73776;SDS011;62088;50.240;2.696;2022-10-18T06:32:08;25.90;;;20.85;;
73776;SDS011;62088;50.240;2.696;2022-10-18T06:34:35;27.30;;;21.13;;
73776;SDS011;62088;50.240;2.696;2022-10-18T06:37:02;34.10;;;24.63;;
73776;SDS011;62088;50.240;2.696;2022-10-18T06:39:29;32.17;;;22.17;;
73776;SDS011;62088;50.240;2.696;2022-10-18T06:41:55;36.72;;;26.92;;
73776;SDS011;62088;50.240;2.696;2022-10-18T06:44:22;36.35;;;26.17;;
73776;SDS011;62088;50.240;2.696;2022-10-18T06:46:50;41.28;;;27.30;;
73776;SDS011;62088;50.240;2.696;2022-10-18T06:49:18;47.05;;;29.65;;
73776;SDS011;62088;50.240;2.696;2022-10-18T06:51:45;54.35;;;31.60;;
73776;SDS011;62088;50.240;2.696;2022-10-18T06:54:13;45.17;;;30.67;;
73776;SDS011;62088;50.240;2.696;2022-10-18T06:56:44;49.25;;;31.60;;
73776;SDS011;62088;50.240;2.696;2022-10-18T06:59:11;48.00;;;30.48;;
73776;SDS011;62088;50.240;2.696;2022-10-18T07:01:39;48.58;;;30.10;;
73776;SDS011;62088;50.240;2.696;2022-10-18T07:04:06;46.17;;;30.95;;
73776;SDS011;62088;50.240;2.696;2022-10-18T07:06:33;47.35;;;32.33;;
73776;SDS011;62088;50.240;2.696;2022-10-18T07:09:00;45.83;;;29.45;;
73776;SDS011;62088;50.240;2.696;2022-10-18T07:11:28;55.13;;;35.22;;
73776;SDS011;62088;50.240;2.696;2022-10-18T07:13:58;45.83;;;31.33;;
73776;SDS011;62088;50.240;2.696;2022-10-18T07:16:30;49.17;;;32.72;;
73776;SDS011;62088;50.240;2.696;2022-10-18T07:18:58;53.60;;;32.35;;
73776;SDS011;62088;50.240;2.696;2022-10-18T07:21:25;52.58;;;32.97;;
73776;SDS011;62088;50.240;2.696;2022-10-18T07:23:52;49.50;;;32.20;;
73776;SDS011;62088;50.240;2.696;2022-10-18T07:26:24;47.80;;;31.50;;
73776;SDS011;62088;50.240;2.696;2022-10-18T07:28:57;43.83;;;29.52;;
73776;SDS011;62088;50.240;2.696;2022-10-18T07:31:27;43.67;;;27.67;;
73776;SDS011;62088;50.240;2.696;2022-10-18T07:33:55;41.05;;;27.05;;
73776;SDS011;62088;50.240;2.696;2022-10-18T07:36:22;44.85;;;28.90;;
73776;SDS011;62088;50.240;2.696;2022-10-18T07:38:51;45.00;;;29.05;;
73776;SDS011;62088;50.240;2.696;2022-10-18T07:41:18;51.55;;;33.63;;
73776;SDS011;62088;50.240;2.696;2022-10-18T07:43:46;51.25;;;32.47;;
73776;SDS011;62088;50.240;2.696;2022-10-18T07:46:16;52.47;;;35.47;;
73776;SDS011;62088;50.240;2.696;2022-10-18T07:48:44;47.92;;;31.10;;
73776;SDS011;62088;50.240;2.696;2022-10-18T07:51:11;56.53;;;34.97;;
73776;SDS011;62088;50.240;2.696;2022-10-18T07:53:39;50.50;;;33.50;;
73776;SDS011;62088;50.240;2.696;2022-10-18T07:56:08;54.80;;;34.40;;
73776;SDS011;62088;50.240;2.696;2022-10-18T07:58:43;53.80;;;33.95;;
73776;SDS011;62088;50.240;2.696;2022-10-18T08:01:11;50.15;;;31.20;;
73776;SDS011;62088;50.240;2.696;2022-10-18T08:03:39;41.40;;;27.90;;
73776;SDS011;62088;50.240;2.696;2022-10-18T08:06:07;42.47;;;28.50;;
73776;SDS011;62088;50.240;2.696;2022-10-18T08:08:37;44.70;;;27.88;;
73776;SDS011;62088;50.240;2.696;2022-10-18T08:11:06;40.40;;;26.52;;
73776;SDS011;62088;50.240;2.696;2022-10-18T08:13:35;43.50;;;26.33;;
73776;SDS011;62088;50.240;2.696;2022-10-18T08:16:04;44.03;;;27.23;;
73776;SDS011;62088;50.240;2.696;2022-10-18T08:18:35;37.72;;;24.33;;
73776;SDS011;62088;50.240;2.696;2022-10-18T08:21:03;39.63;;;25.95;;
73776;SDS011;62088;50.240;2.696;2022-10-18T08:23:32;35.55;;;24.33;;
73776;SDS011;62088;50.240;2.696;2022-10-18T08:26:00;36.55;;;24.17;;
73776;SDS011;62088;50.240;2.696;2022-10-18T08:28:28;30.30;;;20.90;;
73776;SDS011;62088;50.240;2.696;2022-10-18T08:30:55;35.45;;;22.77;;
73776;SDS011;62088;50.240;2.696;2022-10-18T08:33:22;32.35;;;22.60;;
73776;SDS011;62088;50.240;2.696;2022-10-18T08:35:59;33.88;;;22.50;;
73776;SDS011;62088;50.240;2.696;2022-10-18T08:38:30;33.45;;;22.38;;
73776;SDS011;62088;50.240;2.696;2022-10-18T08:44:23;45.22;;;27.67;;
73776;SDS011;62088;50.240;2.696;2022-10-18T08:52:18;35.45;;;21.30;;
73776;SDS011;62088;50.240;2.696;2022-10-18T08:55:09;43.25;;;25.45;;
73776;SDS011;62088;50.240;2.696;2022-10-18T08:57:41;36.85;;;24.27;;
73776;SDS011;62088;50.240;2.696;2022-10-18T09:00:15;35.92;;;24.45;;
73776;SDS011;62088;50.240;2.696;2022-10-18T09:16:31;52.70;;;31.92;;
73776;SDS011;62088;50.240;2.696;2022-10-18T09:19:19;49.08;;;30.45;;
73776;SDS011;62088;50.240;2.696;2022-10-18T09:22:05;48.25;;;31.23;;
73776;SDS011;62088;50.240;2.696;2022-10-18T09:24:42;55.88;;;32.72;;
73776;SDS011;62088;50.240;2.696;2022-10-18T09:27:18;49.40;;;32.35;;
73776;SDS011;62088;50.240;2.696;2022-10-18T09:35:01;46.72;;;30.52;;
73776;SDS011;62088;50.240;2.696;2022-10-18T09:37:49;52.65;;;29.90;;
73776;SDS011;62088;50.240;2.696;2022-10-18T09:40:25;54.47;;;33.03;;
73776;SDS011;62088;50.240;2.696;2022-10-18T09:42:56;57.72;;;33.33;;
73776;SDS011;62088;50.240;2.696;2022-10-18T09:45:39;55.17;;;32.13;;
73776;SDS011;62088;50.240;2.696;2022-10-18T09:50:55;46.45;;;30.20;;
73776;SDS011;62088;50.240;2.696;2022-10-18T09:56:32;48.08;;;29.23;;
73776;SDS011;62088;50.240;2.696;2022-10-18T09:59:53;42.42;;;26.23;;
73776;SDS011;62088;50.240;2.696;2022-10-18T10:01:54;43.25;;;29.05;;
73776;SDS011;62088;50.240;2.696;2022-10-18T10:04:21;41.53;;;27.35;;
73776;SDS011;62088;50.240;2.696;2022-10-18T10:06:49;41.45;;;27.73;;
73776;SDS011;62088;50.240;2.696;2022-10-18T10:09:20;40.13;;;27.98;;
73776;SDS011;62088;50.240;2.696;2022-10-18T10:11:52;36.83;;;25.95;;
73776;SDS011;62088;50.240;2.696;2022-10-18T10:14:22;35.78;;;25.02;;
73776;SDS011;62088;50.240;2.696;2022-10-18T10:22:04;37.95;;;26.15;;
73776;SDS011;62088;50.240;2.696;2022-10-18T10:24:49;37.88;;;26.30;;
73776;SDS011;62088;50.240;2.696;2022-10-18T10:29:55;36.42;;;27.40;;
73776;SDS011;62088;50.240;2.696;2022-10-18T10:32:30;37.20;;;25.92;;
73776;SDS011;62088;50.240;2.696;2022-10-18T10:38:22;35.30;;;26.40;;
73776;SDS011;62088;50.240;2.696;2022-10-18T10:40:50;33.08;;;24.95;;
73776;SDS011;62088;50.240;2.696;2022-10-18T10:46:14;35.42;;;25.60;;
73776;SDS011;62088;50.240;2.696;2022-10-18T10:51:39;35.78;;;26.05;;
73776;SDS011;62088;50.240;2.696;2022-10-18T10:54:11;39.70;;;27.08;;
73776;SDS011;62088;50.240;2.696;2022-10-18T10:59:26;33.97;;;25.60;;
73776;SDS011;62088;50.240;2.696;2022-10-18T11:02:31;36.28;;;27.08;;
73776;SDS011;62088;50.240;2.696;2022-10-18T11:08:08;33.72;;;24.48;;
73776;SDS011;62088;50.240;2.696;2022-10-18T11:10:48;33.67;;;25.63;;
73776;SDS011;62088;50.240;2.696;2022-10-18T11:15:56;33.53;;;26.42;;
73776;SDS011;62088;50.240;2.696;2022-10-18T11:18:33;36.03;;;25.83;;
73776;SDS011;62088;50.240;2.696;2022-10-18T11:21:13;33.55;;;26.02;;
73776;SDS011;62088;50.240;2.696;2022-10-18T11:23:59;34.30;;;26.33;;
73776;SDS011;62088;50.240;2.696;2022-10-18T11:26:47;36.67;;;26.60;;
73776;SDS011;62088;50.240;2.696;2022-10-18T11:29:45;31.58;;;25.65;;
73776;SDS011;62088;50.240;2.696;2022-10-18T11:32:28;31.27;;;25.23;;
73776;SDS011;62088;50.240;2.696;2022-10-18T11:37:56;34.35;;;26.10;;
73776;SDS011;62088;50.240;2.696;2022-10-18T11:43:22;29.92;;;23.08;;
73776;SDS011;62088;50.240;2.696;2022-10-18T12:05:40;20.73;;;10.00;;
73776;SDS011;62088;50.240;2.696;2022-10-18T12:08:12;14.35;;;10.00;;
73776;SDS011;62088;50.240;2.696;2022-10-18T12:10:46;15.65;;;10.18;;
73776;SDS011;62088;50.240;2.696;2022-10-18T12:16:02;17.67;;;10.35;;
73776;SDS011;62088;50.240;2.696;2022-10-18T12:18:32;19.15;;;9.43;;
73776;SDS011;62088;50.240;2.696;2022-10-18T12:21:01;11.02;;;7.25;;
73776;SDS011;62088;50.240;2.696;2022-10-18T12:26:03;15.57;;;6.78;;
73776;SDS011;62088;50.240;2.696;2022-10-18T12:28:54;14.68;;;7.47;;
73776;SDS011;62088;50.240;2.696;2022-10-18T12:31:31;14.32;;;6.55;;
73776;SDS011;62088;50.240;2.696;2022-10-18T12:42:44;10.98;;;5.50;;
73776;SDS011;62088;50.240;2.696;2022-10-18T12:45:24;9.68;;;5.30;;
73776;SDS011;62088;50.240;2.696;2022-10-18T12:48:03;16.23;;;4.78;;
73776;SDS011;62088;50.240;2.696;2022-10-18T12:53:01;11.30;;;4.95;;
73776;SDS011;62088;50.240;2.696;2022-10-18T12:55:29;9.65;;;4.38;;
73776;SDS011;62088;50.240;2.696;2022-10-18T13:13:29;9.52;;;4.45;;
73776;SDS011;62088;50.240;2.696;2022-10-18T13:18:57;7.88;;;3.90;;
73776;SDS011;62088;50.240;2.696;2022-10-18T13:21:34;12.43;;;4.38;;
73776;SDS011;62088;50.240;2.696;2022-10-18T13:33:15;8.60;;;3.47;;
73776;SDS011;62088;50.240;2.696;2022-10-18T13:55:00;7.80;;;2.75;;
73776;SDS011;62088;50.240;2.696;2022-10-18T13:57:57;5.70;;;2.60;;
73776;SDS011;62088;50.240;2.696;2022-10-18T14:06:40;4.00;;;1.90;;
73776;SDS011;62088;50.240;2.696;2022-10-18T14:14:43;7.18;;;2.15;;
73776;SDS011;62088;50.240;2.696;2022-10-18T14:20:25;9.13;;;2.20;;
73776;SDS011;62088;50.240;2.696;2022-10-18T14:25:35;8.18;;;2.38;;
73776;SDS011;62088;50.240;2.696;2022-10-18T14:39:05;7.25;;;2.65;;
73776;SDS011;62088;50.240;2.696;2022-10-18T14:41:51;8.07;;;2.63;;
73776;SDS011;62088;50.240;2.696;2022-10-18T14:44:20;8.77;;;2.22;;
73776;SDS011;62088;50.240;2.696;2022-10-18T14:49:24;7.28;;;2.92;;
73776;SDS011;62088;50.240;2.696;2022-10-18T14:51:52;12.20;;;2.13;;
73776;SDS011;62088;50.240;2.696;2022-10-18T14:54:22;7.10;;;3.00;;
73776;SDS011;62088;50.240;2.696;2022-10-18T14:56:57;6.63;;;2.47;;
73776;SDS011;62088;50.240;2.696;2022-10-18T14:59:29;5.43;;;2.38;;
73776;SDS011;62088;50.240;2.696;2022-10-18T15:02:01;9.13;;;2.80;;
73776;SDS011;62088;50.240;2.696;2022-10-18T15:04:33;7.75;;;3.03;;
73776;SDS011;62088;50.240;2.696;2022-10-18T15:07:00;8.98;;;3.30;;
73776;SDS011;62088;50.240;2.696;2022-10-18T15:09:33;6.88;;;3.25;;
73776;SDS011;62088;50.240;2.696;2022-10-18T15:12:02;9.88;;;3.40;;
73776;SDS011;62088;50.240;2.696;2022-10-18T15:14:31;7.63;;;3.40;;
73776;SDS011;62088;50.240;2.696;2022-10-18T15:22:27;11.25;;;3.50;;
73776;SDS011;62088;50.240;2.696;2022-10-18T15:27:31;5.95;;;3.55;;
73776;SDS011;62088;50.240;2.696;2022-10-18T15:30:13;9.73;;;4.10;;
73776;SDS011;62088;50.240;2.696;2022-10-18T15:32:55;11.63;;;4.20;;
73776;SDS011;62088;50.240;2.696;2022-10-18T15:37:57;9.05;;;3.50;;
73776;SDS011;62088;50.240;2.696;2022-10-18T15:40:30;5.43;;;3.00;;
73776;SDS011;62088;50.240;2.696;2022-10-18T15:43:46;6.25;;;2.53;;
73776;SDS011;62088;50.240;2.696;2022-10-18T15:45:54;7.00;;;2.73;;
73776;SDS011;62088;50.240;2.696;2022-10-18T15:51:02;9.27;;;3.08;;
73776;SDS011;62088;50.240;2.696;2022-10-18T15:53:34;6.13;;;2.92;;
73776;SDS011;62088;50.240;2.696;2022-10-18T15:59:02;9.82;;;2.90;;
73776;SDS011;62088;50.240;2.696;2022-10-18T16:01:33;8.05;;;2.90;;
73776;SDS011;62088;50.240;2.696;2022-10-18T16:04:04;5.38;;;2.22;;
73776;SDS011;62088;50.240;2.696;2022-10-18T16:06:34;8.65;;;2.58;;
73776;SDS011;62088;50.240;2.696;2022-10-18T16:09:04;6.93;;;2.65;;
73776;SDS011;62088;50.240;2.696;2022-10-18T16:11:31;6.25;;;2.45;;
73776;SDS011;62088;50.240;2.696;2022-10-18T16:13:58;4.75;;;2.35;;
73776;SDS011;62088;50.240;2.696;2022-10-18T16:16:26;11.18;;;2.63;;
73776;SDS011;62088;50.240;2.696;2022-10-18T16:18:54;6.65;;;2.53;;
73776;SDS011;62088;50.240;2.696;2022-10-18T16:23:53;5.57;;;2.60;;
73776;SDS011;62088;50.240;2.696;2022-10-18T16:26:21;7.05;;;2.63;;
73776;SDS011;62088;50.240;2.696;2022-10-18T16:28:49;9.75;;;2.83;;
73776;SDS011;62088;50.240;2.696;2022-10-18T16:31:17;12.73;;;3.20;;
73776;SDS011;62088;50.240;2.696;2022-10-18T16:33:47;6.53;;;2.60;;
73776;SDS011;62088;50.240;2.696;2022-10-18T16:36:19;7.30;;;3.03;;
73776;SDS011;62088;50.240;2.696;2022-10-18T16:38:49;9.38;;;3.08;;
73776;SDS011;62088;50.240;2.696;2022-10-18T16:41:16;9.75;;;2.88;;
73776;SDS011;62088;50.240;2.696;2022-10-18T16:43:44;6.05;;;2.47;;
73776;SDS011;62088;50.240;2.696;2022-10-18T16:46:16;8.30;;;2.95;;
73776;SDS011;62088;50.240;2.696;2022-10-18T16:48:46;9.93;;;4.93;;
73776;SDS011;62088;50.240;2.696;2022-10-18T16:51:14;9.80;;;3.97;;
73776;SDS011;62088;50.240;2.696;2022-10-18T16:53:42;10.57;;;3.42;;
73776;SDS011;62088;50.240;2.696;2022-10-18T16:56:16;8.45;;;3.50;;
73776;SDS011;62088;50.240;2.696;2022-10-18T16:58:56;6.93;;;3.85;;
73776;SDS011;62088;50.240;2.696;2022-10-18T17:01:23;10.63;;;4.00;;
73776;SDS011;62088;50.240;2.696;2022-10-18T17:03:52;8.88;;;3.45;;
73776;SDS011;62088;50.240;2.696;2022-10-18T17:06:20;27.35;;;17.13;;
73776;SDS011;62088;50.240;2.696;2022-10-18T17:08:49;106.28;;;65.15;;
73776;SDS011;62088;50.240;2.696;2022-10-18T17:11:17;70.88;;;47.75;;
73776;SDS011;62088;50.240;2.696;2022-10-18T17:13:46;68.20;;;49.42;;
73776;SDS011;62088;50.240;2.696;2022-10-18T17:16:26;45.42;;;33.70;;
73776;SDS011;62088;50.240;2.696;2022-10-18T17:18:56;17.40;;;11.20;;
73776;SDS011;62088;50.240;2.696;2022-10-18T17:21:26;10.68;;;5.72;;
73776;SDS011;62088;50.240;2.696;2022-10-18T17:23:54;10.25;;;5.32;;
73776;SDS011;62088;50.240;2.696;2022-10-18T17:26:26;7.95;;;4.50;;
73776;SDS011;62088;50.240;2.696;2022-10-18T17:28:56;10.23;;;3.45;;
73776;SDS011;62088;50.240;2.696;2022-10-18T17:31:26;7.65;;;3.85;;
73776;SDS011;62088;50.240;2.696;2022-10-18T17:33:53;8.77;;;3.63;;
73776;SDS011;62088;50.240;2.696;2022-10-18T17:36:21;8.98;;;3.55;;
73776;SDS011;62088;50.240;2.696;2022-10-18T17:38:48;7.53;;;3.15;;
73776;SDS011;62088;50.240;2.696;2022-10-18T17:41:17;7.03;;;2.95;;
73776;SDS011;62088;50.240;2.696;2022-10-18T17:43:44;8.13;;;2.63;;
73776;SDS011;62088;50.240;2.696;2022-10-18T17:46:11;6.93;;;3.03;;
73776;SDS011;62088;50.240;2.696;2022-10-18T17:48:40;8.32;;;3.03;;
73776;SDS011;62088;50.240;2.696;2022-10-18T17:51:08;8.30;;;3.83;;
73776;SDS011;62088;50.240;2.696;2022-10-18T17:53:37;8.10;;;3.72;;
73776;SDS011;62088;50.240;2.696;2022-10-18T17:56:04;7.40;;;3.92;;
73776;SDS011;62088;50.240;2.696;2022-10-18T17:58:33;12.82;;;4.47;;
73776;SDS011;62088;50.240;2.696;2022-10-18T18:03:37;11.00;;;4.35;;
73776;SDS011;62088;50.240;2.696;2022-10-18T18:06:14;8.18;;;4.45;;
73776;SDS011;62088;50.240;2.696;2022-10-18T18:08:43;8.32;;;4.60;;
73776;SDS011;62088;50.240;2.696;2022-10-18T18:11:10;9.40;;;5.00;;
73776;SDS011;62088;50.240;2.696;2022-10-18T18:13:37;10.30;;;3.83;;
73776;SDS011;62088;50.240;2.696;2022-10-18T18:16:08;12.48;;;4.40;;
73776;SDS011;62088;50.240;2.696;2022-10-18T18:18:41;17.00;;;4.35;;
73776;SDS011;62088;50.240;2.696;2022-10-18T18:21:08;7.80;;;3.90;;
73776;SDS011;62088;50.240;2.696;2022-10-18T18:23:36;12.77;;;4.38;;
73776;SDS011;62088;50.240;2.696;2022-10-18T18:26:04;9.95;;;4.65;;
73776;SDS011;62088;50.240;2.696;2022-10-18T18:28:32;15.48;;;6.75;;
73776;SDS011;62088;50.240;2.696;2022-10-18T18:31:12;13.00;;;7.47;;
73776;SDS011;62088;50.240;2.696;2022-10-18T18:33:39;15.57;;;8.02;;
73776;SDS011;62088;50.240;2.696;2022-10-18T18:36:07;13.90;;;7.25;;
73776;SDS011;62088;50.240;2.696;2022-10-18T18:38:36;15.10;;;8.20;;